RYR57N LIRF-EDDS
Flight info
| Callsign | RYR57N |
|---|---|
| Flight time | 0h 58m |
| Altitude | 38000 |
| Route | SOVAN DCT AMTEL DCT LOMED DCT IPLUB DCT LUPOS DCT RIPDU DCT IVLOX DCT OSBUL DCT MISPO DCT TZO DCT ABESI N851 UTAVO DCT SOPER N851 ROMIR T125 REUTL REUTL1W |
| Aircraft | B38M/M-SDE1FGHILORVWXY/HB1 |
Departure
| Time | 2026-05-05 18:04 |
|---|---|
| Airport | Rome–Fiumicino Leonardo da Vinci International Airport (LIRF) |
Arrival
| Time | 2026-05-05 19:02 |
|---|---|
| Airport | Stuttgart Airport (EDDS) |
| Time | Latitude | Longitude | Altitude | Speed | Heading |
|---|---|---|---|---|---|
| 2026-05-05 17:38 | 41.79603 | 12.24335 | 17 ft | 0 kts | 277° |
| 2026-05-05 17:55 | 41.79602 | 12.24348 | 17 ft | 4 kts | 276° |
| 2026-05-05 17:55 | 41.79599 | 12.24384 | 19 ft | 4 kts | 276° |
| 2026-05-05 17:56 | 41.79596 | 12.24420 | 20 ft | 4 kts | 276° |
| 2026-05-05 17:56 | 41.79593 | 12.24449 | 17 ft | 4 kts | 300° |
| 2026-05-05 17:56 | 41.79574 | 12.24467 | 19 ft | 4 kts | 340° |
| 2026-05-05 17:56 | 41.79561 | 12.24474 | 19 ft | 1 kts | 334° |
| 2026-05-05 17:57 | 41.79560 | 12.24475 | 19 ft | 0 kts | 334° |
| 2026-05-05 17:58 | 41.79564 | 12.24472 | 19 ft | 3 kts | 334° |
| 2026-05-05 17:59 | 41.79617 | 12.24440 | 17 ft | 13 kts | 340° |
| 2026-05-05 17:59 | 41.79730 | 12.24385 | 17 ft | 20 kts | 340° |
| 2026-05-05 17:59 | 41.79853 | 12.24288 | 14 ft | 22 kts | 333° |
| 2026-05-05 17:59 | 41.79947 | 12.24239 | 16 ft | 7 kts | 341° |
| 2026-05-05 18:00 | 41.80004 | 12.24221 | 14 ft | 10 kts | 2° |
| 2026-05-05 18:00 | 41.80048 | 12.24298 | 12 ft | 14 kts | 70° |
| 2026-05-05 18:00 | 41.80093 | 12.24465 | 12 ft | 24 kts | 70° |
| 2026-05-05 18:00 | 41.80166 | 12.24720 | 13 ft | 35 kts | 69° |
| 2026-05-05 18:01 | 41.80208 | 12.25033 | 20 ft | 35 kts | 82° |
| 2026-05-05 18:01 | 41.80282 | 12.25348 | 20 ft | 36 kts | 70° |
| 2026-05-05 18:01 | 41.80372 | 12.25668 | 17 ft | 38 kts | 69° |
| 2026-05-05 18:01 | 41.80465 | 12.26011 | 17 ft | 40 kts | 69° |
| 2026-05-05 18:02 | 41.80564 | 12.26368 | 19 ft | 40 kts | 70° |
| 2026-05-05 18:02 | 41.80662 | 12.26725 | 16 ft | 41 kts | 71° |
| 2026-05-05 18:02 | 41.80749 | 12.27026 | 13 ft | 20 kts | 58° |
| 2026-05-05 18:02 | 41.80846 | 12.27020 | 11 ft | 16 kts | 337° |
| 2026-05-05 18:03 | 41.80951 | 12.26956 | 12 ft | 17 kts | 308° |
| 2026-05-05 18:03 | 41.80926 | 12.26816 | 12 ft | 17 kts | 249° |
| 2026-05-05 18:03 | 41.80833 | 12.26482 | 17 ft | 77 kts | 249° |
| 2026-05-05 18:03 | 41.80552 | 12.25465 | 17 ft | 153 kts | 250° |
| 2026-05-05 18:04 | 41.80147 | 12.23904 | 306 ft | 195 kts | 246° |
| 2026-05-05 18:04 | 41.79684 | 12.22117 | 1108 ft | 202 kts | 243° |
| 2026-05-05 18:04 | 41.79023 | 12.20584 | 2378 ft | 190 kts | 226° |
| 2026-05-05 18:04 | 41.78018 | 12.19416 | 3179 ft | 197 kts | 214° |
| 2026-05-05 18:05 | 41.76856 | 12.18356 | 3981 ft | 204 kts | 211° |
| 2026-05-05 18:05 | 41.75637 | 12.17316 | 4781 ft | 217 kts | 211° |
| 2026-05-05 18:05 | 41.74272 | 12.16207 | 5349 ft | 240 kts | 210° |
| 2026-05-05 18:05 | 41.72795 | 12.15072 | 6207 ft | 249 kts | 210° |
| 2026-05-05 18:06 | 41.71273 | 12.13934 | 7146 ft | 256 kts | 214° |
| 2026-05-05 18:06 | 41.70334 | 12.12932 | 7590 ft | 266 kts | 229° |
| 2026-05-05 18:06 | 41.69465 | 12.09953 | 9142 ft | 262 kts | 266° |
| 2026-05-05 18:06 | 41.69767 | 12.07502 | 9951 ft | 278 kts | 290° |
| 2026-05-05 18:07 | 41.70941 | 12.05389 | 10628 ft | 297 kts | 319° |
| 2026-05-05 18:07 | 41.72882 | 12.04182 | 11094 ft | 325 kts | 346° |
| 2026-05-05 18:07 | 41.75216 | 12.04222 | 11593 ft | 346 kts | 4° |
| 2026-05-05 18:07 | 41.77674 | 12.04481 | 12079 ft | 361 kts | 1° |
| 2026-05-05 18:08 | 41.80217 | 12.04698 | 12738 ft | 369 kts | 1° |
| 2026-05-05 18:08 | 41.82790 | 12.04930 | 13608 ft | 373 kts | 1° |
| 2026-05-05 18:08 | 41.85398 | 12.05165 | 14307 ft | 378 kts | 1° |
| 2026-05-05 18:08 | 41.88034 | 12.05409 | 15011 ft | 382 kts | 1° |
| 2026-05-05 18:09 | 41.90663 | 12.05654 | 15684 ft | 386 kts | 1° |
| 2026-05-05 18:09 | 41.93358 | 12.05906 | 16341 ft | 390 kts | 1° |
| 2026-05-05 18:09 | 41.96075 | 12.06071 | 16972 ft | 392 kts | 354° |
| 2026-05-05 18:09 | 41.98808 | 12.05813 | 17567 ft | 395 kts | 353° |
| 2026-05-05 18:10 | 42.01555 | 12.05552 | 18223 ft | 399 kts | 352° |
| 2026-05-05 18:10 | 42.04347 | 12.05280 | 18749 ft | 404 kts | 352° |
| 2026-05-05 18:10 | 42.07159 | 12.05006 | 19324 ft | 407 kts | 352° |
| 2026-05-05 18:10 | 42.09993 | 12.04729 | 19883 ft | 410 kts | 352° |
| 2026-05-05 18:11 | 42.12844 | 12.04451 | 20429 ft | 413 kts | 352° |
| 2026-05-05 18:11 | 42.15725 | 12.04169 | 20994 ft | 416 kts | 352° |
| 2026-05-05 18:11 | 42.18610 | 12.03733 | 21481 ft | 417 kts | 343° |
| 2026-05-05 18:11 | 42.21381 | 12.02627 | 22007 ft | 418 kts | 340° |
| 2026-05-05 18:12 | 42.24182 | 12.01504 | 22509 ft | 422 kts | 340° |
| 2026-05-05 18:12 | 42.27003 | 12.00359 | 23053 ft | 424 kts | 339° |
| 2026-05-05 18:12 | 42.29840 | 11.99201 | 23567 ft | 428 kts | 339° |
| 2026-05-05 18:12 | 42.32697 | 11.98030 | 24005 ft | 430 kts | 339° |
| 2026-05-05 18:13 | 42.35569 | 11.96852 | 24465 ft | 432 kts | 339° |
| 2026-05-05 18:13 | 42.38451 | 11.95669 | 24901 ft | 434 kts | 339° |
| 2026-05-05 18:13 | 42.41353 | 11.94477 | 25335 ft | 437 kts | 338° |
| 2026-05-05 18:13 | 42.45083 | 11.92943 | 25879 ft | 439 kts | 338° |
| 2026-05-05 18:14 | 42.50940 | 11.90532 | 26739 ft | 442 kts | 338° |
| 2026-05-05 18:14 | 42.56863 | 11.88075 | 27013 ft | 446 kts | 338° |
| 2026-05-05 18:14 | 42.62794 | 11.85621 | 27877 ft | 447 kts | 337° |
| 2026-05-05 18:14 | 42.68795 | 11.83161 | 28606 ft | 452 kts | 336° |
| 2026-05-05 18:15 | 42.74826 | 11.80645 | 29334 ft | 456 kts | 336° |
| 2026-05-05 18:15 | 42.80934 | 11.78101 | 30082 ft | 459 kts | 336° |
| 2026-05-05 18:15 | 42.87027 | 11.75556 | 30914 ft | 457 kts | 336° |
| 2026-05-05 18:15 | 42.93096 | 11.73030 | 31711 ft | 456 kts | 335° |
| 2026-05-05 18:16 | 42.99077 | 11.70531 | 32517 ft | 454 kts | 335° |
| 2026-05-05 18:16 | 43.05105 | 11.67991 | 33306 ft | 452 kts | 335° |
| 2026-05-05 18:16 | 43.11100 | 11.65471 | 34117 ft | 450 kts | 334° |
| 2026-05-05 18:16 | 43.17090 | 11.62953 | 34777 ft | 448 kts | 334° |
| 2026-05-05 18:17 | 43.22994 | 11.60309 | 35391 ft | 440 kts | 327° |
| 2026-05-05 18:17 | 43.27955 | 11.55865 | 36016 ft | 426 kts | 319° |
| 2026-05-05 18:17 | 43.32290 | 11.53290 | 36416 ft | 442 kts | 334° |
| 2026-05-05 18:17 | 43.35069 | 11.51671 | 36618 ft | 427 kts | 320° |
| 2026-05-05 18:18 | 43.37551 | 11.49462 | 36866 ft | 425 kts | 320° |
| 2026-05-05 18:18 | 43.42568 | 11.45131 | 37306 ft | 425 kts | 320° |
| 2026-05-05 18:18 | 43.47566 | 11.40774 | 37787 ft | 425 kts | 321° |
| 2026-05-05 18:19 | 43.57554 | 11.32010 | 37969 ft | 424 kts | 320° |
| 2026-05-05 18:19 | 43.67569 | 11.23207 | 38027 ft | 428 kts | 321° |
| 2026-05-05 18:20 | 43.77579 | 11.14399 | 37993 ft | 428 kts | 320° |
| 2026-05-05 18:20 | 43.87555 | 11.05541 | 38001 ft | 428 kts | 320° |
| 2026-05-05 18:21 | 43.97599 | 10.96611 | 38012 ft | 430 kts | 320° |
| 2026-05-05 18:21 | 44.07645 | 10.87623 | 38025 ft | 428 kts | 320° |
| 2026-05-05 18:22 | 44.17714 | 10.78614 | 38059 ft | 433 kts | 320° |
| 2026-05-05 18:22 | 44.27844 | 10.69504 | 38053 ft | 432 kts | 320° |
| 2026-05-05 18:23 | 44.37945 | 10.60337 | 38046 ft | 432 kts | 320° |
| 2026-05-05 18:23 | 44.48085 | 10.51141 | 38046 ft | 437 kts | 320° |
| 2026-05-05 18:24 | 44.58207 | 10.41912 | 38038 ft | 438 kts | 320° |
| 2026-05-05 18:24 | 44.68404 | 10.32548 | 38004 ft | 438 kts | 320° |
| 2026-05-05 18:25 | 44.78627 | 10.23159 | 37991 ft | 442 kts | 320° |
| 2026-05-05 18:25 | 44.88950 | 10.13614 | 37975 ft | 443 kts | 320° |
| 2026-05-05 18:26 | 44.99273 | 10.04027 | 37958 ft | 445 kts | 320° |
| 2026-05-05 18:26 | 45.07873 | 9.96022 | 37957 ft | 446 kts | 320° |
| 2026-05-05 18:27 | 45.20023 | 9.84710 | 37965 ft | 449 kts | 321° |
| 2026-05-05 18:27 | 45.30351 | 9.74951 | 37991 ft | 448 kts | 320° |
| 2026-05-05 18:28 | 45.44333 | 9.61746 | 38085 ft | 453 kts | 320° |
| 2026-05-05 18:28 | 45.54800 | 9.51773 | 38108 ft | 453 kts | 321° |
| 2026-05-05 18:29 | 45.64075 | 9.44798 | 37366 ft | 462 kts | 336° |
| 2026-05-05 18:29 | 45.67203 | 9.43667 | 38166 ft | 467 kts | 346° |
| 2026-05-05 18:29 | 45.70378 | 9.42691 | 37946 ft | 466 kts | 338° |
| 2026-05-05 18:30 | 45.76602 | 9.40169 | 37991 ft | 472 kts | 339° |
| 2026-05-05 18:30 | 45.82950 | 9.37636 | 37983 ft | 473 kts | 339° |
| 2026-05-05 18:31 | 45.89280 | 9.35102 | 38010 ft | 473 kts | 339° |
| 2026-05-05 18:31 | 45.95624 | 9.32562 | 37986 ft | 473 kts | 339° |
| 2026-05-05 18:32 | 46.01961 | 9.30015 | 37944 ft | 472 kts | 339° |
| 2026-05-05 18:32 | 46.08290 | 9.27468 | 37977 ft | 474 kts | 340° |
| 2026-05-05 18:33 | 46.14630 | 9.24908 | 38029 ft | 473 kts | 339° |
| 2026-05-05 18:33 | 46.20958 | 9.22348 | 38035 ft | 473 kts | 340° |
| 2026-05-05 18:34 | 46.27299 | 9.19776 | 37983 ft | 472 kts | 339° |
| 2026-05-05 18:34 | 46.33611 | 9.17211 | 37996 ft | 472 kts | 340° |
| 2026-05-05 18:35 | 46.39935 | 9.14632 | 37958 ft | 471 kts | 339° |
| 2026-05-05 18:35 | 46.46253 | 9.12051 | 37949 ft | 472 kts | 339° |
| 2026-05-05 18:36 | 46.52572 | 9.09463 | 37963 ft | 471 kts | 339° |
| 2026-05-05 18:36 | 46.54731 | 9.08577 | 37948 ft | 472 kts | 339° |
| 2026-05-05 18:37 | 46.60150 | 9.06351 | 38009 ft | 471 kts | 339° |
| 2026-05-05 18:37 | 46.66471 | 9.03749 | 37892 ft | 471 kts | 340° |
| 2026-05-05 18:38 | 46.72797 | 9.01138 | 37948 ft | 474 kts | 340° |
| 2026-05-05 18:38 | 46.79116 | 8.98520 | 38017 ft | 470 kts | 340° |
| 2026-05-05 18:39 | 46.85420 | 8.95907 | 37955 ft | 473 kts | 340° |
| 2026-05-05 18:39 | 46.91894 | 8.94066 | 37921 ft | 479 kts | 352° |
| 2026-05-05 18:40 | 46.98534 | 8.93134 | 37901 ft | 479 kts | 351° |
| 2026-05-05 18:40 | 47.05186 | 8.92212 | 37900 ft | 480 kts | 351° |
| 2026-05-05 18:41 | 47.11824 | 8.91294 | 37896 ft | 479 kts | 351° |
| 2026-05-05 18:41 | 47.15146 | 8.90834 | 36928 ft | 485 kts | 351° |
| 2026-05-05 18:41 | 47.18524 | 8.90367 | 36249 ft | 484 kts | 351° |
| 2026-05-05 18:42 | 47.21867 | 8.89903 | 35597 ft | 483 kts | 350° |
| 2026-05-05 18:42 | 47.25236 | 8.89434 | 34548 ft | 492 kts | 351° |
| 2026-05-05 18:42 | 47.28664 | 8.89442 | 34027 ft | 493 kts | 5° |
| 2026-05-05 18:42 | 47.31996 | 8.90617 | 33279 ft | 496 kts | 16° |
| 2026-05-05 18:43 | 47.35246 | 8.92454 | 32115 ft | 505 kts | 26° |
| 2026-05-05 18:43 | 47.38221 | 8.95191 | 31482 ft | 501 kts | 31° |
| 2026-05-05 18:43 | 47.41204 | 8.97780 | 30913 ft | 495 kts | 29° |
| 2026-05-05 18:43 | 47.44193 | 9.00302 | 30215 ft | 494 kts | 28° |
| 2026-05-05 18:44 | 47.47181 | 9.02816 | 29415 ft | 493 kts | 28° |
| 2026-05-05 18:44 | 47.50159 | 9.05320 | 28465 ft | 494 kts | 29° |
| 2026-05-05 18:44 | 47.53150 | 9.07838 | 27526 ft | 495 kts | 29° |
| 2026-05-05 18:44 | 47.56139 | 9.10359 | 26732 ft | 493 kts | 29° |
| 2026-05-05 18:45 | 47.59102 | 9.12861 | 26069 ft | 488 kts | 29° |
| 2026-05-05 18:45 | 47.62039 | 9.15345 | 25418 ft | 484 kts | 29° |
| 2026-05-05 18:45 | 47.64946 | 9.17806 | 24811 ft | 479 kts | 30° |
| 2026-05-05 18:45 | 47.67809 | 9.20234 | 24161 ft | 467 kts | 30° |
| 2026-05-05 18:46 | 47.70612 | 9.22614 | 23069 ft | 462 kts | 30° |
| 2026-05-05 18:46 | 47.73351 | 9.24939 | 21959 ft | 456 kts | 30° |
| 2026-05-05 18:46 | 47.76253 | 9.26845 | 20887 ft | 448 kts | 14° |
| 2026-05-05 18:46 | 47.79294 | 9.27586 | 19911 ft | 439 kts | 7° |
| 2026-05-05 18:47 | 47.82282 | 9.28322 | 18943 ft | 434 kts | 8° |
| 2026-05-05 18:47 | 47.85232 | 9.29111 | 18055 ft | 427 kts | 8° |
| 2026-05-05 18:47 | 47.88132 | 9.29911 | 17102 ft | 420 kts | 8° |
| 2026-05-05 18:47 | 47.90983 | 9.30713 | 16206 ft | 413 kts | 8° |
| 2026-05-05 18:48 | 47.93748 | 9.31498 | 15379 ft | 406 kts | 8° |
| 2026-05-05 18:48 | 47.96516 | 9.32285 | 14781 ft | 394 kts | 8° |
| 2026-05-05 18:48 | 47.99154 | 9.33037 | 14261 ft | 389 kts | 8° |
| 2026-05-05 18:48 | 48.01777 | 9.33786 | 13737 ft | 378 kts | 8° |
| 2026-05-05 18:49 | 48.04324 | 9.34514 | 13212 ft | 367 kts | 8° |
| 2026-05-05 18:49 | 48.06786 | 9.35218 | 12979 ft | 357 kts | 8° |
| 2026-05-05 18:49 | 48.09210 | 9.35913 | 13024 ft | 349 kts | 8° |
| 2026-05-05 18:49 | 48.11548 | 9.36583 | 13013 ft | 335 kts | 8° |
| 2026-05-05 18:50 | 48.13796 | 9.37227 | 13027 ft | 325 kts | 7° |
| 2026-05-05 18:50 | 48.16007 | 9.37863 | 13026 ft | 323 kts | 8° |
| 2026-05-05 18:50 | 48.18199 | 9.38494 | 13014 ft | 317 kts | 8° |
| 2026-05-05 18:50 | 48.20344 | 9.39111 | 13028 ft | 312 kts | 7° |
| 2026-05-05 18:51 | 48.22459 | 9.39722 | 12920 ft | 308 kts | 8° |
| 2026-05-05 18:51 | 48.24573 | 9.40332 | 12552 ft | 308 kts | 7° |
| 2026-05-05 18:51 | 48.26669 | 9.40938 | 12147 ft | 305 kts | 7° |
| 2026-05-05 18:51 | 48.28755 | 9.41541 | 11607 ft | 304 kts | 7° |
| 2026-05-05 18:52 | 48.30817 | 9.42139 | 11101 ft | 302 kts | 7° |
| 2026-05-05 18:52 | 48.32884 | 9.42738 | 10688 ft | 301 kts | 7° |
| 2026-05-05 18:52 | 48.34934 | 9.43333 | 10374 ft | 300 kts | 6° |
| 2026-05-05 18:52 | 48.36974 | 9.43926 | 10068 ft | 298 kts | 6° |
| 2026-05-05 18:53 | 48.39008 | 9.44517 | 9781 ft | 297 kts | 6° |
| 2026-05-05 18:53 | 48.41036 | 9.45106 | 9465 ft | 296 kts | 6° |
| 2026-05-05 18:53 | 48.43049 | 9.45693 | 9155 ft | 294 kts | 6° |
| 2026-05-05 18:53 | 48.45055 | 9.46275 | 8833 ft | 292 kts | 7° |
| 2026-05-05 18:54 | 48.47035 | 9.46854 | 8324 ft | 289 kts | 6° |
| 2026-05-05 18:54 | 48.48987 | 9.47361 | 8019 ft | 280 kts | 6° |
| 2026-05-05 18:54 | 48.50876 | 9.47933 | 7839 ft | 273 kts | 7° |
| 2026-05-05 18:54 | 48.52706 | 9.48507 | 7695 ft | 265 kts | 9° |
| 2026-05-05 18:55 | 48.54487 | 9.49113 | 7451 ft | 261 kts | 6° |
| 2026-05-05 18:55 | 48.56271 | 9.49605 | 7168 ft | 262 kts | 5° |
| 2026-05-05 18:55 | 48.58064 | 9.50105 | 6872 ft | 262 kts | 6° |
| 2026-05-05 18:55 | 48.59872 | 9.50620 | 6499 ft | 267 kts | 6° |
| 2026-05-05 18:56 | 48.61711 | 9.51154 | 6105 ft | 271 kts | 6° |
| 2026-05-05 18:56 | 48.63566 | 9.51694 | 5753 ft | 272 kts | 6° |
| 2026-05-05 18:56 | 48.65404 | 9.52234 | 5579 ft | 266 kts | 6° |
| 2026-05-05 18:56 | 48.67194 | 9.52761 | 5434 ft | 258 kts | 6° |
| 2026-05-05 18:57 | 48.68923 | 9.53269 | 5353 ft | 247 kts | 7° |
| 2026-05-05 18:57 | 48.70558 | 9.53636 | 5214 ft | 236 kts | 353° |
| 2026-05-05 18:57 | 48.72108 | 9.53043 | 4875 ft | 228 kts | 324° |
| 2026-05-05 18:57 | 48.73208 | 9.51445 | 4620 ft | 215 kts | 295° |
| 2026-05-05 18:58 | 48.73622 | 9.49366 | 4411 ft | 203 kts | 274° |
| 2026-05-05 18:58 | 48.73625 | 9.47256 | 4189 ft | 198 kts | 262° |
| 2026-05-05 18:58 | 48.73359 | 9.45236 | 3927 ft | 192 kts | 253° |
| 2026-05-05 18:58 | 48.72999 | 9.43378 | 3746 ft | 177 kts | 253° |
| 2026-05-05 18:59 | 48.72669 | 9.41652 | 3507 ft | 166 kts | 253° |
| 2026-05-05 18:59 | 48.72353 | 9.39981 | 3306 ft | 165 kts | 253° |
| 2026-05-05 18:59 | 48.72038 | 9.38317 | 3099 ft | 163 kts | 253° |
| 2026-05-05 18:59 | 48.71735 | 9.36712 | 2905 ft | 156 kts | 253° |
| 2026-05-05 19:00 | 48.71441 | 9.35161 | 2677 ft | 146 kts | 253° |
| 2026-05-05 19:00 | 48.71174 | 9.33743 | 2489 ft | 137 kts | 253° |
| 2026-05-05 19:00 | 48.70913 | 9.32369 | 2301 ft | 136 kts | 253° |
| 2026-05-05 19:00 | 48.70652 | 9.30990 | 2110 ft | 137 kts | 253° |
| 2026-05-05 19:01 | 48.70382 | 9.29564 | 1992 ft | 147 kts | 254° |
| 2026-05-05 19:01 | 48.70081 | 9.28031 | 1823 ft | 156 kts | 252° |
| 2026-05-05 19:01 | 48.69772 | 9.26403 | 1597 ft | 167 kts | 255° |
| 2026-05-05 19:01 | 48.69455 | 9.24666 | 1372 ft | 175 kts | 254° |
| 2026-05-05 19:02 | 48.69138 | 9.22995 | 1291 ft | 149 kts | 253° |
| 2026-05-05 19:02 | 48.68965 | 9.22083 | 1288 ft | 43 kts | 253° |
| 2026-05-05 19:02 | 48.68946 | 9.21735 | 1288 ft | 23 kts | 278° |
| 2026-05-05 19:02 | 48.68975 | 9.21549 | 1288 ft | 19 kts | 284° |
| 2026-05-05 19:03 | 48.69002 | 9.21385 | 1288 ft | 7 kts | 284° |
| 2026-05-05 19:03 | 48.69010 | 9.21340 | 1288 ft | 8 kts | 284° |
| 2026-05-05 19:03 | 48.69026 | 9.21244 | 1288 ft | 10 kts | 284° |
| 2026-05-05 19:03 | 48.69046 | 9.21128 | 1288 ft | 12 kts | 272° |
| 2026-05-05 19:04 | 48.69022 | 9.20998 | 1288 ft | 14 kts | 255° |
| 2026-05-05 19:04 | 48.69005 | 9.20901 | 1288 ft | 4 kts | 254° |
| 2026-05-05 19:04 | 48.68994 | 9.20843 | 1288 ft | 7 kts | 254° |
| 2026-05-05 19:04 | 48.68976 | 9.20750 | 1288 ft | 11 kts | 254° |
| 2026-05-05 19:05 | 48.68965 | 9.20624 | 1288 ft | 7 kts | 285° |
| 2026-05-05 19:05 | 48.68997 | 9.20554 | 1288 ft | 10 kts | 315° |
| 2026-05-05 19:05 | 48.69053 | 9.20465 | 1288 ft | 13 kts | 304° |
| 2026-05-05 19:05 | 48.69045 | 9.20350 | 1288 ft | 14 kts | 252° |
| 2026-05-05 19:06 | 48.69034 | 9.20297 | 1288 ft | 15 kts | 252° |
| 2026-05-05 19:06 | 48.69005 | 9.20139 | 1288 ft | 16 kts | 256° |
| 2026-05-05 19:06 | 48.68957 | 9.20010 | 1288 ft | 6 kts | 222° |
| 2026-05-05 19:06 | 48.68914 | 9.20010 | 1288 ft | 7 kts | 165° |
| 2026-05-05 19:07 | 48.68892 | 9.20019 | 1288 ft | 1 kts | 164° |
| 2026-05-05 19:07 | 48.68887 | 9.20022 | 1288 ft | 1 kts | 164° |
| 2026-05-05 19:07 | 48.68882 | 9.20024 | 1288 ft | 1 kts | 164° |
| 2026-05-05 19:07 | 48.68870 | 9.20029 | 1288 ft | 0 kts | 164° |
| 2026-05-05 19:08 | 48.68883 | 9.20023 | 1288 ft | 0 kts | 164° |